.
WxDataArchive / Data Records for 2010-06-11
2010-06-10 June 2010 2010-06-12

Data Records for Friday, 11 June 2010

Time	Temp	Chill	HIndex	Humid	Dewpt	 Wind 	HiWind	WindDir	Rain 	Barom 
-----	----	-----	------	-----	-----	------	------	-------	-----	----- 
00:00	66.3	66.3	66.3	79	59.6	0	0	---	0.00	29.988 
00:05	66.0	66.0	66.0	80	59.6	0	0	---	0.00	29.988 
00:10	66.0	66.0	66.0	81	60.0	0	1	45	0.00	29.988 
00:15	66.0	66.0	66.0	82	60.3	0	0	---	0.00	29.982 
00:20	65.8	65.8	65.8	82	60.1	0	0	---	0.00	29.982 
00:25	65.8	65.8	65.8	82	60.1	0	0	---	0.00	29.982 
00:30	65.6	65.6	65.6	83	60.3	0	0	---	0.00	29.980 
00:35	65.6	65.6	65.6	83	60.3	0	0	---	0.00	29.980 
00:40	65.5	65.5	65.5	83	60.2	0	0	---	0.00	29.980 
00:45	65.5	65.5	65.5	83	60.2	0	0	---	0.00	29.985 
00:50	65.5	65.5	65.5	83	60.2	0	0	---	0.00	29.985 
00:55	65.6	65.6	65.6	84	60.6	0	0	---	0.00	29.985 
01:00	65.6	65.6	65.6	84	60.6	0	0	---	0.00	29.989 
01:05	65.8	65.8	65.8	84	60.8	0	0	---	0.00	29.989 
01:10	65.8	65.8	65.8	84	60.8	0	0	---	0.00	29.989 
01:15	66.0	66.0	66.0	84	61.0	0	0	---	0.00	29.995 
01:20	66.1	66.1	66.1	84	61.1	0	0	---	0.00	29.995 
01:25	66.3	66.3	66.3	84	61.3	0	0	---	0.00	29.995 
01:30	66.4	66.4	66.4	83	61.1	0	0	---	0.00	30.000 
01:35	66.4	66.4	66.4	83	61.1	0	0	---	0.00	30.000 
01:40	66.6	66.6	66.6	82	60.9	0	0	---	0.00	30.000 
01:45	66.8	66.8	66.8	82	61.1	0	0	---	0.00	30.005 
01:50	66.9	66.9	66.9	81	60.9	0	0	---	0.00	30.005 
01:55	66.9	66.9	66.9	81	60.9	0	0	---	0.00	30.005 
02:00	67.1	67.1	67.1	81	61.1	0	0	---	0.00	30.014 
02:05	67.3	67.3	67.3	79	60.6	0	0	---	0.00	30.014 
02:10	67.4	67.4	67.4	79	60.7	0	0	---	0.00	30.014 
02:15	67.4	67.4	67.4	79	60.7	0	0	---	0.00	30.011 
02:20	67.6	67.6	67.6	78	60.5	0	0	---	0.00	30.011 
02:25	67.6	67.6	67.6	79	60.8	0	0	---	0.00	30.011 
02:30	67.6	67.6	67.6	81	61.6	0	0	---	0.00	30.000 
02:35	67.6	67.6	67.6	81	61.6	0	0	---	0.00	30.000 
02:40	67.4	67.4	67.4	82	61.7	0	0	---	0.00	30.000 
02:45	67.4	67.4	67.4	83	62.0	0	0	---	0.00	29.998 
02:50	67.4	67.4	67.4	83	62.0	0	0	---	0.00	29.998 
02:55	67.3	67.3	67.3	83	62.0	0	0	---	0.00	29.998 
03:00	67.1	67.1	67.1	82	61.4	0	0	---	0.00	29.995 
03:05	67.1	67.1	67.1	82	61.4	0	0	---	0.00	29.995 
03:10	67.1	67.1	67.1	81	61.1	0	0	---	0.00	29.995 
03:15	67.1	67.1	67.1	81	61.1	0	0	---	0.00	29.993 
03:20	67.3	67.3	67.3	82	61.6	0	0	---	0.00	29.993 
03:25	67.1	67.1	67.1	81	61.1	0	1	45	0.00	29.993 
03:30	67.3	67.3	67.3	81	61.3	0	1	45	0.00	29.988 
03:35	67.3	67.3	67.3	81	61.3	0	1	45	0.00	29.988 
03:40	67.3	67.3	67.3	81	61.3	0	1	45	0.00	29.988 
03:45	67.3	67.3	67.3	80	60.9	0	1	45	0.00	29.981 
03:50	67.3	67.3	67.3	79	60.6	0	1	45	0.00	29.981 
03:55	67.3	67.3	67.3	78	60.2	0	3	90	0.00	29.981 
04:00	67.3	67.3	67.3	78	60.2	0	3	90	0.00	29.975 
04:05	67.3	67.3	67.3	78	60.2	0	1	90	0.00	29.975 
04:10	67.1	67.1	67.1	78	60.0	0	3	90	0.00	29.975 
04:15	67.1	67.1	67.1	78	60.0	0	1	90	0.00	29.979 
04:20	67.1	67.1	67.1	77	59.6	0	1	90	0.00	29.979 
04:25	67.3	67.3	67.3	77	59.8	0	3	90	0.00	29.979 
04:30	67.3	67.3	67.3	77	59.8	1	3	90	0.00	29.979 
04:35	67.4	67.4	67.4	77	59.9	0	3	90	0.00	29.979 
04:40	67.4	67.4	67.4	78	60.3	0	2	90	0.00	29.979 
04:45	67.3	67.3	67.3	77	59.8	1	3	90	0.00	29.981 
04:50	67.4	67.4	67.4	77	59.9	0	2	90	0.00	29.981 
04:55	67.4	67.4	67.4	77	59.9	0	1	90	0.00	29.981 
05:00	67.4	67.4	67.4	77	59.9	0	2	90	0.00	29.983 
05:05	67.3	67.3	67.3	78	60.2	1	4	90	0.00	29.983 
05:10	67.3	67.3	67.3	78	60.2	1	2	90	0.00	29.983 
05:15	67.1	67.1	67.1	79	60.4	1	3	90	0.00	29.984 
05:20	67.1	67.1	67.1	79	60.4	1	3	90	0.00	29.984 
05:25	66.9	66.9	66.9	80	60.5	1	3	90	0.00	29.984 
05:30	66.8	66.8	66.8	81	60.8	1	2	90	0.00	29.992 
05:35	66.8	66.8	66.8	81	60.8	0	2	90	0.00	29.992 
05:40	66.8	66.8	66.8	81	60.8	0	2	90	0.00	29.992 
05:45	66.6	66.6	66.6	81	60.6	0	2	90	0.00	29.993 
05:50	66.6	66.6	66.6	81	60.6	1	2	90	0.00	29.993 
05:55	66.6	66.6	66.6	81	60.6	1	3	90	0.00	29.993 
06:00	66.8	66.8	66.8	80	60.4	1	4	90	0.00	29.983 
06:05	66.8	66.8	66.8	81	60.8	1	3	90	0.00	29.983 
06:10	66.6	66.6	66.6	81	60.6	0	3	90	0.00	29.983 
06:15	66.4	66.4	66.4	82	60.7	1	4	90	0.00	29.982 
06:20	66.4	66.4	66.4	82	60.7	1	4	90	0.00	29.982 
06:25	66.3	66.3	66.3	83	61.0	0	3	90	0.00	29.982 
06:30	66.1	66.1	66.1	83	60.8	0	2	90	0.00	29.999 
06:35	66.1	66.1	66.1	84	61.1	1	3	90	0.00	29.999 
06:40	66.1	66.1	66.1	84	61.1	1	3	68	0.00	29.999 
06:45	66.3	66.3	66.3	84	61.3	1	4	90	0.00	30.008 
06:50	66.3	66.3	66.3	84	61.3	1	4	90	0.00	30.008 
06:55	66.3	66.3	66.3	84	61.3	1	3	90	0.00	30.008 
07:00	66.4	66.4	66.4	84	61.4	0	2	90	0.00	30.011 
07:05	66.4	66.4	66.4	84	61.4	1	2	90	0.00	30.011 
07:10	66.6	66.6	66.6	84	61.6	0	2	90	0.00	30.011 
07:15	66.8	66.8	66.8	84	61.8	1	3	90	0.00	30.016 
07:20	66.8	66.8	66.8	84	61.8	0	2	90	0.00	30.016 
07:25	66.9	66.9	66.9	84	61.9	1	4	90	0.00	30.016 
07:30	67.1	67.1	67.1	84	62.1	1	4	90	0.00	30.014 
07:35	67.3	67.3	67.3	84	62.3	0	2	90	0.00	30.014 
07:40	67.4	67.4	67.4	84	62.4	1	5	90	0.00	30.014 
07:45	67.8	67.8	67.8	83	62.4	0	2	90	0.00	30.014 
07:50	68.3	68.3	68.3	82	62.6	0	2	135	0.00	30.014 
07:55	68.6	68.6	68.6	81	62.5	1	3	135	0.00	30.014 
08:00	68.6	68.6	68.6	81	62.5	2	4	45	0.00	30.022 
08:05	68.6	68.6	68.6	81	62.5	0	2	68	0.00	30.022 
08:10	68.6	68.6	68.6	81	62.5	0	0	---	0.00	30.022 
08:15	68.6	68.6	68.6	81	62.5	0	2	68	0.00	30.032 
08:20	68.6	68.6	68.6	82	62.9	0	2	68	0.00	30.032 
08:25	68.6	68.6	68.6	82	62.9	0	1	68	0.00	30.032 
08:30	68.6	68.6	68.6	82	62.9	0	2	68	0.00	30.047 
08:35	68.8	68.8	68.8	82	63.1	0	2	68	0.00	30.047 
08:40	68.9	68.9	68.9	83	63.5	0	2	68	0.00	30.047 
08:45	69.1	69.1	69.1	83	63.7	1	3	68	0.00	30.037 
08:50	69.1	69.1	69.1	83	63.7	1	3	90	0.00	30.037 
08:55	69.1	69.1	69.1	84	64.1	0	3	112	0.00	30.037 
09:00	69.1	69.1	69.1	84	64.1	0	1	112	0.00	30.045 
09:05	68.9	68.9	68.9	84	63.9	0	1	112	0.00	30.045 
09:10	68.9	68.9	68.9	84	63.9	0	1	112	0.00	30.045 
09:15	68.9	68.9	68.9	84	63.9	0	1	112	0.00	30.061 
09:20	68.9	68.9	68.9	84	63.9	0	0	---	0.00	30.061 
09:25	68.9	68.9	68.9	85	64.2	0	0	---	0.00	30.061 
09:30	68.8	68.8	68.8	85	64.1	0	0	---	0.00	30.061 
09:35	68.4	68.4	68.4	86	64.0	0	0	---	0.01	30.061 
09:40	68.3	68.3	68.3	87	64.3	0	0	---	0.00	30.061 
09:45	68.1	68.1	68.1	88	64.4	0	0	---	0.01	30.062 
09:50	67.9	67.9	67.9	88	64.2	0	1	112	0.00	30.062 
09:55	67.8	67.8	67.8	89	64.4	0	0	---	0.00	30.062 
10:00	67.8	67.8	67.8	90	64.8	0	0	---	0.00	30.065 
10:05	67.6	67.6	67.6	90	64.6	0	0	---	0.01	30.065 
10:10	67.6	67.6	67.6	90	64.6	0	0	---	0.00	30.065 
10:15	67.4	67.4	67.4	91	64.7	0	1	112	0.01	30.065 
10:20	67.4	67.4	67.4	91	64.7	0	1	112	0.00	30.065 
10:25	67.3	67.3	67.3	92	64.9	0	1	112	0.01	30.065 
10:30	67.1	67.1	67.1	92	64.7	0	3	112	0.00	30.052 
10:35	66.9	66.9	66.9	92	64.5	0	1	112	0.01	30.052 
10:40	66.9	66.9	66.9	92	64.5	0	1	112	0.00	30.052 
10:45	66.9	66.9	66.9	93	64.8	0	1	112	0.00	30.051 
10:50	66.9	66.9	66.9	93	64.8	0	1	112	0.01	30.051 
10:55	66.9	66.9	66.9	93	64.8	0	1	112	0.01	30.051 
11:00	67.1	67.1	67.1	94	65.3	0	1	112	0.01	30.040 
11:05	67.3	67.3	67.3	94	65.5	0	1	112	0.01	30.040 
11:10	67.6	67.6	67.6	94	65.8	0	1	112	0.00	30.040 
11:15	67.9	67.9	67.9	94	66.1	0	2	112	0.01	30.035 
11:20	68.4	68.4	68.4	95	66.9	0	1	112	0.00	30.035 
11:25	69.4	69.4	69.4	95	67.9	0	1	112	0.00	30.035 
11:30	70.4	70.4	70.4	95	68.9	0	2	112	0.00	30.034 
11:35	70.6	70.6	70.6	94	68.8	1	4	112	0.00	30.034 
11:40	70.9	70.9	70.9	94	69.1	1	5	90	0.00	30.034 
11:45	71.3	71.3	71.3	93	69.2	2	4	68	0.00	30.034 
11:50	71.5	71.5	71.5	92	69.0	2	7	90	0.00	30.034 
11:55	72.1	72.1	72.1	91	69.3	1	4	90	0.00	30.034 
12:00	72.5	72.5	72.5	89	69.1	1	4	90	0.00	30.031 
12:05	73.0	73.0	73.0	89	69.6	1	3	112	0.00	30.031 
12:10	73.0	73.0	73.0	88	69.2	2	4	90	0.00	30.031 
12:15	73.0	73.0	73.0	88	69.2	1	6	90	0.00	30.033 
12:20	73.7	73.7	73.7	88	69.9	1	3	90	0.00	30.033 
12:25	73.9	73.9	73.9	85	69.1	2	10	112	0.00	30.033 
12:30	74.2	74.2	74.2	85	69.4	2	10	112	0.00	30.031 
12:35	74.6	74.6	74.6	86	70.1	2	5	112	0.00	30.031 
12:40	74.9	74.9	74.9	84	69.7	2	6	90	0.00	30.031 
12:45	75.3	75.3	75.5	84	70.1	1	3	135	0.00	30.030 
12:50	75.8	75.8	76.4	83	70.3	2	5	90	0.00	30.030 
12:55	76.0	76.0	76.8	82	70.1	2	7	90	0.00	30.030 
13:00	76.3	76.3	77.4	81	70.0	1	4	90	0.00	30.026 
13:05	76.3	76.3	77.4	81	70.0	1	3	135	0.00	30.026 
13:10	76.5	76.5	77.7	81	70.2	1	4	135	0.00	30.026 
13:15	76.7	76.7	78.0	81	70.4	3	6	90	0.00	30.018 
13:20	76.8	76.8	78.2	81	70.5	2	4	90	0.00	30.018 
13:25	77.0	77.0	78.5	81	70.7	2	5	90	0.00	30.018 
13:30	77.4	77.4	79.2	80	70.7	2	4	112	0.00	30.015 
13:35	77.7	77.7	79.8	79	70.7	2	6	90	0.00	30.015 
13:40	77.9	77.9	80.1	80	71.2	2	4	90	0.00	30.015 
13:45	78.1	78.1	80.5	79	71.0	2	5	90	0.00	30.008 
13:50	78.5	78.5	81.2	79	71.4	1	5	90	0.00	30.008 
13:55	78.8	78.8	81.7	78	71.3	1	4	90	0.00	30.008 
14:00	79.2	79.2	82.4	78	71.7	1	4	112	0.00	30.002 
14:05	79.0	79.0	82.0	78	71.5	3	6	90	0.00	30.002 
14:10	78.8	78.8	81.7	79	71.7	2	5	90	0.00	30.002 
14:15	79.4	79.4	83.0	80	72.7	2	7	112	0.00	29.995 
14:20	79.4	79.4	82.8	78	71.9	3	8	90	0.00	29.995 
14:25	79.8	79.8	83.7	79	72.7	2	5	112	0.00	29.995 
14:30	80.1	80.1	84.0	77	72.2	2	6	90	0.00	29.997 
14:35	80.1	80.1	84.2	78	72.6	2	4	68	0.00	29.997 
14:40	79.9	79.9	83.8	78	72.4	1	5	68	0.00	29.997 
14:45	80.1	80.1	84.3	79	73.0	1	4	90	0.00	29.994 
14:50	80.5	80.5	85.1	79	73.4	2	5	90	0.00	29.994 
14:55	81.1	81.1	86.3	78	73.6	2	5	90	0.00	29.994 
15:00	81.4	81.4	86.9	78	73.9	2	6	90	0.00	29.984 
15:05	81.8	81.8	87.1	75	73.1	2	5	90	0.00	29.984 
15:10	82.0	82.0	88.0	77	74.1	3	5	90	0.00	29.984 
15:15	82.0	82.0	88.0	77	74.1	3	5	112	0.00	29.972 
15:20	82.4	82.4	89.0	77	74.4	2	6	90	0.00	29.972 
15:25	82.6	82.6	88.9	75	73.8	3	8	112	0.00	29.972 
15:30	82.8	82.8	89.9	77	74.8	2	6	90	0.00	29.968 
15:35	83.2	83.2	90.3	75	74.4	2	6	68	0.00	29.968 
15:40	82.8	82.8	89.1	74	73.6	2	4	90	0.00	29.968 
15:45	82.2	82.2	88.3	76	73.9	1	5	90	0.00	29.965 
15:50	81.6	81.6	87.2	77	73.7	2	7	90	0.00	29.965 
15:55	81.2	81.2	86.7	79	74.0	1	4	90	0.00	29.965 
16:00	81.1	81.1	86.7	80	74.3	0	2	90	0.01	29.961 
16:05	80.7	80.7	85.9	81	74.3	0	0	---	0.01	29.961 
16:10	80.1	80.1	85.0	84	74.8	0	3	90	0.02	29.961 
16:15	79.4	79.4	83.4	84	74.1	0	1	90	0.00	29.948 
16:20	78.8	78.8	82.1	85	73.9	0	3	90	0.00	29.948 
16:25	78.3	78.3	81.0	85	73.4	1	2	90	0.00	29.948 
16:30	77.9	77.9	80.2	84	72.7	1	4	90	0.00	29.954 
16:35	77.7	77.7	79.8	86	73.2	0	0	---	0.03	29.954 
16:40	77.2	77.2	78.7	87	73.0	0	2	90	0.04	29.954 
16:45	76.8	76.8	77.9	88	73.0	0	2	90	0.01	29.961 
16:50	76.8	76.8	77.7	90	73.6	0	2	90	0.00	29.961 
16:55	76.7	76.7	77.5	91	73.9	0	4	90	0.00	29.961 
17:00	76.7	76.7	77.5	91	73.9	0	1	90	0.00	29.958 
17:05	76.7	76.7	77.4	92	74.2	0	0	---	0.00	29.958 
17:10	76.8	76.8	77.6	92	74.3	0	1	90	0.00	29.958 
17:15	77.0	77.0	78.1	92	74.5	0	1	270	0.00	29.951 
17:20	77.2	77.2	78.6	92	74.7	0	0	---	0.00	29.951 
17:25	77.2	77.2	78.6	92	74.7	0	2	45	0.00	29.951 
17:30	77.0	77.0	78.1	92	74.5	0	2	45	0.00	29.950 
17:35	77.0	77.0	78.1	92	74.5	0	2	45	0.00	29.950 
17:40	76.8	76.8	77.7	91	74.0	0	2	45	0.00	29.950 
17:45	77.0	77.0	78.1	91	74.2	0	1	45	0.00	29.935 
17:50	77.4	77.4	79.1	91	74.6	0	1	45	0.00	29.935 
17:55	77.7	77.7	79.8	91	74.9	0	3	45	0.00	29.935 
18:00	78.1	78.1	80.8	91	75.2	0	2	45	0.00	29.929 
18:05	78.5	78.5	81.7	90	75.3	1	4	45	0.00	29.929 
18:10	78.6	78.6	81.9	88	74.7	1	4	68	0.00	29.929 
18:15	79.0	79.0	82.8	88	75.1	1	3	68	0.00	29.921 
18:20	79.4	79.4	83.7	87	75.2	1	3	68	0.00	29.921 
18:25	79.4	79.4	83.6	86	74.8	2	6	270	0.00	29.921 
18:30	77.4	77.4	79.2	81	71.1	2	6	270	0.02	29.941 
18:35	75.8	75.8	76.3	84	70.6	1	5	90	0.06	29.941 
18:40	74.7	74.7	74.7	87	70.6	2	5	112	0.05	29.941 
18:45	74.4	74.4	74.4	89	70.9	1	3	270	0.00	29.924 
18:50	74.4	74.4	74.4	90	71.3	1	4	292	0.00	29.924 
18:55	74.7	74.7	74.7	91	71.9	1	3	292	0.00	29.924 
19:00	74.7	74.7	74.7	91	71.9	1	3	292	0.00	29.923 
19:05	74.6	74.6	74.6	91	71.8	0	2	270	0.00	29.923 
19:10	74.6	74.6	74.6	91	71.8	0	1	270	0.00	29.923 
19:15	74.7	74.7	74.7	91	71.9	0	3	270	0.00	29.924 
19:20	74.7	74.7	74.7	91	71.9	0	1	270	0.00	29.924 
19:25	74.9	74.9	74.9	92	72.4	0	1	270	0.00	29.924 
19:30	74.9	74.9	74.9	92	72.4	0	1	270	0.00	29.929 
19:35	74.7	74.7	74.7	91	71.9	0	2	270	0.00	29.929 
19:40	74.7	74.7	74.7	91	71.9	0	1	270	0.00	29.929 
19:45	74.9	74.9	74.9	91	72.1	0	1	270	0.00	29.934 
19:50	74.9	74.9	74.9	91	72.1	0	0	---	0.00	29.934 
19:55	74.9	74.9	74.9	91	72.1	0	0	---	0.00	29.934 
20:00	74.9	74.9	74.9	91	72.1	0	1	270	0.00	29.943 
20:05	74.9	74.9	74.9	91	72.1	0	0	---	0.00	29.943 
20:10	74.9	74.9	74.9	91	72.1	0	0	---	0.00	29.943 
20:15	74.7	74.7	74.7	91	71.9	0	0	---	0.00	29.951 
20:20	74.7	74.7	74.7	92	72.2	0	1	270	0.00	29.951 
20:25	74.6	74.6	74.6	91	71.8	0	0	---	0.00	29.951 
20:30	74.4	74.4	74.4	91	71.6	0	0	---	0.00	29.956 
20:35	74.4	74.4	74.4	91	71.6	0	0	---	0.00	29.956 
20:40	74.2	74.2	74.2	92	71.7	0	0	---	0.00	29.956 
20:45	74.0	74.0	74.0	92	71.5	0	0	---	0.00	29.960 
20:50	73.9	73.9	73.9	92	71.4	0	0	---	0.00	29.960 
20:55	73.7	73.7	73.7	92	71.2	0	0	---	0.00	29.960 
21:00	73.5	73.5	73.5	92	71.0	0	0	---	0.00	29.959 
21:05	73.5	73.5	73.5	92	71.0	0	0	---	0.00	29.959 
21:10	73.3	73.3	73.3	92	70.8	0	1	270	0.00	29.959 
21:15	73.3	73.3	73.3	91	70.5	0	2	270	0.00	29.954 
21:20	73.3	73.3	73.3	91	70.5	0	1	270	0.00	29.954 
21:25	73.3	73.3	73.3	90	70.2	0	2	270	0.00	29.954 
21:30	73.3	73.3	73.3	90	70.2	0	0	---	0.00	29.957 
21:35	73.3	73.3	73.3	90	70.2	0	1	0	0.00	29.957 
21:40	73.2	73.2	73.2	90	70.1	0	0	---	0.00	29.957 
21:45	73.2	73.2	73.2	91	70.4	0	0	---	0.00	29.966 
21:50	73.0	73.0	73.0	91	70.2	0	0	---	0.00	29.966 
21:55	72.8	72.8	72.8	91	70.0	0	0	---	0.00	29.966 
22:00	72.7	72.7	72.7	91	69.9	0	0	---	0.00	29.974 
22:05	72.7	72.7	72.7	91	69.9	0	0	---	0.00	29.974 
22:10	72.5	72.5	72.5	92	70.0	0	0	---	0.00	29.974 
22:15	72.3	72.3	72.3	92	69.8	0	0	---	0.00	29.981 
22:20	72.3	72.3	72.3	92	69.8	0	0	---	0.00	29.981 
22:25	72.1	72.1	72.1	92	69.6	0	0	---	0.00	29.981 
22:30	72.1	72.1	72.1	92	69.6	0	0	---	0.00	29.982 
22:35	72.0	72.0	72.0	92	69.5	0	0	---	0.00	29.982 
22:40	72.0	72.0	72.0	92	69.5	0	0	---	0.00	29.982 
22:45	72.0	72.0	72.0	92	69.5	0	0	---	0.00	29.986 
22:50	71.8	71.8	71.8	92	69.3	0	0	---	0.00	29.986 
22:55	71.8	71.8	71.8	92	69.3	0	0	---	0.00	29.986 
23:00	71.8	71.8	71.8	92	69.3	0	0	---	0.00	29.989 
23:05	71.8	71.8	71.8	92	69.3	0	1	0	0.00	29.989 
23:10	71.8	71.8	71.8	92	69.3	0	0	---	0.00	29.989 
23:15	71.8	71.8	71.8	92	69.3	0	0	---	0.00	29.983 
23:20	71.8	71.8	71.8	92	69.3	0	0	---	0.00	29.983 
23:25	71.8	71.8	71.8	92	69.3	0	0	---	0.00	29.983 
23:30	71.8	71.8	71.8	92	69.3	0	0	---	0.00	29.984 
23:35	71.8	71.8	71.8	93	69.7	0	0	---	0.00	29.984 
23:40	71.8	71.8	71.8	93	69.7	0	0	---	0.00	29.984 
23:45	71.8	71.8	71.8	93	69.7	0	0	---	0.00	29.981 
23:50	72.0	72.0	72.0	93	69.9	0	0	---	0.00	29.981 
23:55	72.1	72.1	72.1	93	70.0	0	0	---	0.00	29.981 

CoCoRaHS
IN-AL-39
A2 Web Hosting
Creative Commons License
GoDaddy
search engine by freefind advanced

loaded 2018-11-15 14:00:45 • last modified 2010-11-18 10:43:29
Privacy PolicyDisclaimer
• wx.awcolley.com is powered by PmWiki v.2002016 •
• all content (unless otherwise noted) © 2018 A W Colley